Kingston Mines, Illinois
Current Conditions -  °F | °C
As of 5:54 AM on Sunday 23 Nov 2014 (Local Time) from KPIA Reporting Station
Broken Clouds Broken Clouds  
Wind Chill: 51°   Ceiling: 6000
Heat Index: 51°   Visibility: 10mi
Dew Point: 43°   Wind: 13mph
Humidity: 74%   Direction: 170°S
Pressure: 29.73"   Gusts: NA
Location:  40.56°N, 89.77°W
Report Text: KPIA 231154Z 17011KT 10SM BKN060 11/06 A2973 RMK AO2 SLP067 T01060061 10122 20106 56015
Loading
Personal Weather Stations






























Interactive Weather Map New forecast layout! Learn more

10-Day Weather Forecast

Advertisements
Track Severe Weather on mobile